createdAt,value
2022-08-09T00:00:04.373Z,0.00
2022-08-09T00:01:01.028Z,0.00
2022-08-09T00:01:59.806Z,0.00
2022-08-09T00:02:59.535Z,0.00
2022-08-09T00:04:05.507Z,0.00
2022-08-09T00:05:02.861Z,0.00
2022-08-09T00:06:18.832Z,0.00
2022-08-09T00:07:00.656Z,0.00
2022-08-09T00:08:01.297Z,0.00
2022-08-09T00:08:59.374Z,0.00
2022-08-09T00:09:59.372Z,0.00
2022-08-09T00:10:59.343Z,0.00
2022-08-09T00:12:04.010Z,0.00
2022-08-09T00:13:00.341Z,0.00
2022-08-09T00:13:59.331Z,0.00
2022-08-09T00:15:06.269Z,0.00
2022-08-09T00:16:02.733Z,0.00
2022-08-09T00:16:59.268Z,0.00
2022-08-09T00:18:06.203Z,0.00
2022-08-09T00:19:00.239Z,0.00
2022-08-09T00:19:59.250Z,0.00
2022-08-09T00:20:59.207Z,0.00
2022-08-09T00:21:59.199Z,0.00
2022-08-09T00:22:59.438Z,0.00
2022-08-09T00:24:00.250Z,0.00
2022-08-09T00:24:59.177Z,0.00
2022-08-09T00:25:59.150Z,0.00
2022-08-09T00:27:00.183Z,0.00
2022-08-09T00:27:59.374Z,0.00
2022-08-09T00:28:59.163Z,0.00
2022-08-09T00:30:23.335Z,0.00
2022-08-09T00:31:00.077Z,0.00
2022-08-09T00:32:01.150Z,0.00
2022-08-09T00:32:59.287Z,0.00
2022-08-09T00:33:59.082Z,0.00
2022-08-09T00:34:59.035Z,0.00
2022-08-09T00:35:59.021Z,0.00
2022-08-09T00:36:59.033Z,0.00
2022-08-09T00:37:59.007Z,0.00
2022-08-09T00:38:59.232Z,0.00
2022-08-09T00:40:12.916Z,0.00
2022-08-09T00:41:00.048Z,0.00
2022-08-09T00:44:11.824Z,0.00
2022-08-09T00:44:13.489Z,0.00
2022-08-09T00:44:15.931Z,0.00
2022-08-09T00:44:59.890Z,0.00
2022-08-09T00:45:58.882Z,0.00
2022-08-09T00:47:05.055Z,0.00
2022-08-09T00:47:59.862Z,0.00
2022-08-09T00:48:58.859Z,0.00
2022-08-09T00:49:59.068Z,0.00
2022-08-09T00:50:58.817Z,0.00
2022-08-09T00:52:02.170Z,0.00
2022-08-09T00:52:59.827Z,0.00
2022-08-09T00:53:58.818Z,0.00
2022-08-09T00:54:59.006Z,0.00
2022-08-09T00:56:05.405Z,0.00
2022-08-09T00:56:59.748Z,0.00
2022-08-09T00:57:59.423Z,0.00
2022-08-09T00:58:58.719Z,0.00
2022-08-09T00:59:58.985Z,0.00
2022-08-09T01:00:59.144Z,0.00
2022-08-09T01:01:58.712Z,0.00
2022-08-09T01:02:58.660Z,0.00
2022-08-09T01:03:58.664Z,0.00
2022-08-09T01:04:58.864Z,0.00
2022-08-09T01:05:58.706Z,0.00
2022-08-09T01:06:59.604Z,0.00
2022-08-09T01:08:00.987Z,0.00
2022-08-09T01:08:58.573Z,0.00
2022-08-09T01:09:58.811Z,0.00
2022-08-09T01:10:58.551Z,0.00
2022-08-09T01:11:58.545Z,0.00
2022-08-09T01:12:58.531Z,0.00
2022-08-09T01:14:00.015Z,0.00
2022-08-09T01:14:58.503Z,0.00
2022-08-09T01:15:58.738Z,0.00
2022-08-09T01:16:58.481Z,0.00
2022-08-09T01:17:58.477Z,0.00
2022-08-09T01:19:01.725Z,0.00
2022-08-09T01:20:02.279Z,0.00
2022-08-09T01:20:58.682Z,0.00
2022-08-09T01:21:58.409Z,0.00
2022-08-09T01:22:58.399Z,0.00
2022-08-09T01:24:02.357Z,0.00
2022-08-09T01:24:59.371Z,0.00
2022-08-09T01:25:58.594Z,0.00
2022-08-09T01:26:58.346Z,0.00
2022-08-09T01:27:58.334Z,0.00
2022-08-09T01:28:58.647Z,0.00
2022-08-09T01:29:58.305Z,0.00
2022-08-09T01:30:59.868Z,0.00
2022-08-09T01:32:29.681Z,0.00
2022-08-09T01:32:59.263Z,0.00
2022-08-09T01:33:58.262Z,0.00
2022-08-09T01:34:58.233Z,0.00
2022-08-09T01:35:59.226Z,0.00
2022-08-09T01:36:58.464Z,0.00
2022-08-09T01:38:09.297Z,0.00
2022-08-09T01:38:59.193Z,0.00
2022-08-09T01:39:58.178Z,0.00
2022-08-09T01:41:05.370Z,0.00
2022-08-09T01:42:03.020Z,0.00
2022-08-09T01:42:59.143Z,0.00
2022-08-09T01:43:58.128Z,0.00
2022-08-09T01:44:58.118Z,0.00
2022-08-09T01:45:58.325Z,0.00
2022-08-09T01:46:58.335Z,0.00
2022-08-09T01:47:58.078Z,0.00
2022-08-09T01:49:14.851Z,0.00
2022-08-09T01:49:58.047Z,0.00
2022-08-09T01:50:58.048Z,0.00
2022-08-09T01:51:58.268Z,0.00
2022-08-09T01:52:59.006Z,0.00
2022-08-09T01:53:58.294Z,0.00
2022-08-09T01:54:57.979Z,0.00
2022-08-09T01:55:57.988Z,0.00
2022-08-09T01:56:58.216Z,0.00
2022-08-09T01:57:58.937Z,0.00
2022-08-09T01:58:57.933Z,0.00
2022-08-09T02:00:00.094Z,0.00
2022-08-09T02:00:58.940Z,0.00
2022-08-09T02:02:01.012Z,0.00
2022-08-09T02:02:57.905Z,0.00
2022-08-09T02:03:57.954Z,0.00
2022-08-09T02:05:01.407Z,0.00
2022-08-09T02:06:06.159Z,0.00
2022-08-09T02:06:59.136Z,0.00
2022-08-09T02:08:39.296Z,0.00
2022-08-09T02:08:59.832Z,0.00
2022-08-09T02:09:59.776Z,0.00
2022-08-09T02:10:57.776Z,0.00
2022-08-09T02:11:57.996Z,0.00
2022-08-09T02:12:57.749Z,0.00
2022-08-09T02:14:07.141Z,0.00
2022-08-09T02:14:58.726Z,0.00
2022-08-09T02:15:57.713Z,0.00
2022-08-09T02:16:59.564Z,0.00
2022-08-09T02:18:09.601Z,0.00
2022-08-09T02:18:58.704Z,0.00
2022-08-09T02:19:57.659Z,0.00
2022-08-09T02:20:57.651Z,0.00
2022-08-09T02:21:57.636Z,0.00
2022-08-09T02:22:57.854Z,0.00
2022-08-09T02:23:57.608Z,0.00
2022-08-09T02:24:57.597Z,0.00
2022-08-09T02:25:57.748Z,0.00
2022-08-09T02:26:58.659Z,0.00
2022-08-09T02:28:03.781Z,0.00
2022-08-09T02:28:59.874Z,0.00
2022-08-09T02:29:57.524Z,0.00
2022-08-09T02:30:57.513Z,0.00
2022-08-09T02:31:57.506Z,0.00
2022-08-09T02:32:57.494Z,0.00
2022-08-09T02:34:07.514Z,0.00
2022-08-09T02:34:58.468Z,0.00
2022-08-09T02:36:03.197Z,0.00
2022-08-09T02:36:58.442Z,0.00
2022-08-09T02:37:57.423Z,0.00
2022-08-09T02:38:57.638Z,0.00
2022-08-09T02:40:01.822Z,0.00
2022-08-09T02:40:58.380Z,0.00
2022-08-09T02:41:57.385Z,0.00
2022-08-09T02:42:59.938Z,0.00
2022-08-09T02:43:57.341Z,0.00
2022-08-09T02:44:57.338Z,0.00
2022-08-09T02:45:57.342Z,0.00
2022-08-09T02:46:57.326Z,0.00
2022-08-09T02:48:05.088Z,0.00
2022-08-09T02:48:58.288Z,0.00
2022-08-09T02:50:01.747Z,0.00
2022-08-09T02:50:57.254Z,0.00
2022-08-09T02:51:57.235Z,0.00
2022-08-09T02:52:57.485Z,0.00
2022-08-09T02:54:00.877Z,0.00
2022-08-09T02:54:57.440Z,0.00
2022-08-09T02:55:58.288Z,0.00
2022-08-09T02:56:57.328Z,0.00
2022-08-09T02:58:32.461Z,0.00
2022-08-09T02:58:58.160Z,0.00
2022-08-09T03:00:25.532Z,0.00
2022-08-09T03:00:58.996Z,0.00
2022-08-09T03:02:06.471Z,0.00
2022-08-09T03:03:00.350Z,0.00
2022-08-09T03:04:16.526Z,0.00
2022-08-09T03:04:58.095Z,0.00
2022-08-09T03:05:57.061Z,0.00
2022-08-09T03:06:57.049Z,0.00
2022-08-09T03:07:57.291Z,0.00
2022-08-09T03:08:57.027Z,0.00
2022-08-09T03:09:57.013Z,0.00
2022-08-09T03:10:57.019Z,0.00
2022-08-09T03:12:06.138Z,0.00
2022-08-09T03:12:58.227Z,0.00
2022-08-09T03:13:59.594Z,0.00
2022-08-09T03:14:56.977Z,0.00
2022-08-09T03:16:06.393Z,0.00
2022-08-09T03:16:58.402Z,0.00
2022-08-09T03:17:58.666Z,0.00
2022-08-09T03:18:57.143Z,0.00
2022-08-09T03:20:02.692Z,0.00
2022-08-09T03:20:57.866Z,0.00
2022-08-09T03:21:56.863Z,0.00
2022-08-09T03:23:00.326Z,0.00
2022-08-09T03:24:04.647Z,0.00
2022-08-09T03:25:06.612Z,0.00
2022-08-09T03:26:03.591Z,0.00
2022-08-09T03:26:57.804Z,0.00
2022-08-09T03:27:56.780Z,0.00
2022-08-09T03:28:57.004Z,0.00
2022-08-09T03:30:01.242Z,0.00
2022-08-09T03:30:56.734Z,0.00
2022-08-09T03:31:59.881Z,0.00
2022-08-09T03:32:56.719Z,0.00
2022-08-09T03:33:58.096Z,0.00
2022-08-09T03:34:56.682Z,0.00
2022-08-09T03:36:12.554Z,0.00
2022-08-09T03:36:58.201Z,0.00
2022-08-09T03:37:58.557Z,1.00
2022-08-09T03:38:56.868Z,0.00
2022-08-09T03:39:56.803Z,0.00
2022-08-09T03:40:56.607Z,0.00
2022-08-09T03:42:06.255Z,0.00
2022-08-09T03:42:57.531Z,1.00
2022-08-09T03:44:08.449Z,0.00
2022-08-09T03:44:57.545Z,0.00
2022-08-09T03:46:04.883Z,0.00
2022-08-09T03:46:57.529Z,0.00
2022-08-09T03:47:56.523Z,0.00
2022-08-09T03:48:56.726Z,0.00
2022-08-09T03:49:58.257Z,0.00
2022-08-09T03:50:56.839Z,0.00
2022-08-09T03:52:00.182Z,5.00
2022-08-09T03:52:57.549Z,4.00
2022-08-09T03:53:56.633Z,1.00
2022-08-09T03:54:56.758Z,1.00
2022-08-09T03:55:56.383Z,1.00
2022-08-09T03:56:57.767Z,1.00
2022-08-09T03:58:06.433Z,1.00
2022-08-09T03:58:57.542Z,2.00
2022-08-09T03:59:56.301Z,2.00
2022-08-09T04:00:56.350Z,2.00
2022-08-09T04:01:56.270Z,3.00
2022-08-09T04:02:57.436Z,2.00
2022-08-09T04:04:00.515Z,4.00
2022-08-09T04:04:58.506Z,4.00
2022-08-09T04:05:56.262Z,4.00
2022-08-09T04:06:56.271Z,5.00
2022-08-09T04:07:57.876Z,5.00
2022-08-09T04:08:56.206Z,6.00
2022-08-09T04:09:56.407Z,7.00
2022-08-09T04:10:56.164Z,7.00
2022-08-09T04:11:57.136Z,8.00
2022-08-09T04:12:56.159Z,8.00
2022-08-09T04:14:53.129Z,9.00
2022-08-09T04:15:01.519Z,11.00
2022-08-09T04:16:20.292Z,15.00
2022-08-09T04:16:57.281Z,11.00
2022-08-09T04:17:57.739Z,12.00
2022-08-09T04:18:56.296Z,13.00
2022-08-09T04:19:56.454Z,17.00
2022-08-09T04:20:56.121Z,22.00
2022-08-09T04:21:56.013Z,28.00
2022-08-09T04:22:56.002Z,27.00
2022-08-09T04:23:57.694Z,37.00
2022-08-09T04:24:55.973Z,36.00
2022-08-09T04:25:55.997Z,35.00
2022-08-09T04:26:55.961Z,32.00
2022-08-09T04:28:02.506Z,41.00
2022-08-09T04:28:59.724Z,42.00
2022-08-09T04:29:56.031Z,45.00
2022-08-09T04:30:55.922Z,45.00
2022-08-09T04:31:57.924Z,54.00
2022-08-09T04:32:55.866Z,55.00
2022-08-09T04:33:57.069Z,58.00
2022-08-09T04:34:57.676Z,57.00
2022-08-09T04:35:55.834Z,71.00
2022-08-09T04:36:55.826Z,60.00
2022-08-09T04:37:55.833Z,67.00
2022-08-09T04:38:56.010Z,64.00
2022-08-09T04:39:55.865Z,60.00
2022-08-09T04:40:56.354Z,51.00
2022-08-09T04:41:55.766Z,46.00
2022-08-09T04:42:55.717Z,36.00
2022-08-09T04:44:07.349Z,40.00
2022-08-09T04:44:56.705Z,44.00
2022-08-09T04:45:55.683Z,48.00
2022-08-09T04:46:58.219Z,53.00
2022-08-09T04:47:58.863Z,59.00
2022-08-09T04:48:58.287Z,63.00
2022-08-09T04:49:55.964Z,66.00
2022-08-09T04:50:55.621Z,68.00
2022-08-09T04:51:55.604Z,71.00
2022-08-09T04:52:55.584Z,73.00
2022-08-09T04:53:58.661Z,76.00
2022-08-09T04:54:55.809Z,79.00
2022-08-09T04:55:57.697Z,81.00
2022-08-09T04:56:55.531Z,84.00
2022-08-09T04:58:01.620Z,86.00
2022-08-09T04:58:56.512Z,89.00
2022-08-09T04:59:55.751Z,91.00
2022-08-09T05:00:55.522Z,94.00
2022-08-09T05:01:55.483Z,98.00
2022-08-09T05:02:55.476Z,105.00
2022-08-09T05:03:58.521Z,107.00
2022-08-09T05:04:56.159Z,109.00
2022-08-09T05:06:06.603Z,111.00
2022-08-09T05:06:56.411Z,113.00
2022-08-09T05:07:55.394Z,115.00
2022-08-09T05:09:00.763Z,118.00
2022-08-09T05:09:56.604Z,120.00
2022-08-09T05:10:55.348Z,123.00
2022-08-09T05:11:55.337Z,125.00
2022-08-09T05:12:55.325Z,129.00
2022-08-09T05:13:55.314Z,131.00
2022-08-09T05:14:55.556Z,134.00
2022-08-09T05:15:56.651Z,136.00
2022-08-09T05:16:58.735Z,139.00
2022-08-09T05:18:50.511Z,141.00
2022-08-09T05:18:58.257Z,143.00
2022-08-09T05:19:57.021Z,145.00
2022-08-09T05:20:55.219Z,148.00
2022-08-09T05:21:56.479Z,150.00
2022-08-09T05:23:54.880Z,153.00
2022-08-09T05:24:01.183Z,154.00
2022-08-09T05:24:57.253Z,156.00
2022-08-09T05:25:55.152Z,158.00
2022-08-09T05:26:55.138Z,160.00
2022-08-09T05:27:55.437Z,162.00
2022-08-09T05:28:55.151Z,164.00
2022-08-09T05:29:55.093Z,166.00
2022-08-09T05:30:55.312Z,168.00
2022-08-09T05:31:56.761Z,170.00
2022-08-09T05:32:55.052Z,172.00
2022-08-09T05:33:55.045Z,174.00
2022-08-09T05:34:55.024Z,176.00
2022-08-09T05:35:57.170Z,178.00
2022-08-09T05:36:55.002Z,180.00
2022-08-09T05:37:54.988Z,182.00
2022-08-09T05:38:54.978Z,184.00
2022-08-09T05:39:55.016Z,186.00
2022-08-09T05:40:55.186Z,188.00
2022-08-09T05:41:54.939Z,190.00
2022-08-09T05:42:54.942Z,192.00
2022-08-09T05:43:54.915Z,194.00
2022-08-09T05:44:54.900Z,196.00
2022-08-09T05:45:57.887Z,198.00
2022-08-09T05:46:54.866Z,200.00
2022-08-09T05:47:59.192Z,202.00
2022-08-09T05:48:58.887Z,205.00
2022-08-09T05:50:35.145Z,207.00
2022-08-09T05:51:16.554Z,211.00
2022-08-09T05:51:55.809Z,211.00
2022-08-09T05:52:54.993Z,213.00
2022-08-09T05:53:57.804Z,216.00
2022-08-09T05:54:55.222Z,217.00
2022-08-09T05:55:55.010Z,220.00
2022-08-09T05:56:56.792Z,221.00
2022-08-09T05:57:56.370Z,223.00
2022-08-09T05:58:57.993Z,225.00
2022-08-09T05:59:54.721Z,227.00
2022-08-09T06:00:54.917Z,229.00
2022-08-09T06:01:58.585Z,231.00
2022-08-09T06:02:57.005Z,233.00
2022-08-09T06:03:58.538Z,236.00
2022-08-09T06:04:55.815Z,238.00
2022-08-09T06:06:04.547Z,239.00
2022-08-09T06:06:55.608Z,241.00
2022-08-09T06:08:05.329Z,242.00
2022-08-09T06:08:55.599Z,245.00
2022-08-09T06:10:02.728Z,249.00
2022-08-09T06:10:56.087Z,247.00
2022-08-09T06:11:57.307Z,249.00
2022-08-09T06:13:02.807Z,251.00
2022-08-09T06:13:55.536Z,253.00
2022-08-09T06:14:54.526Z,255.00
2022-08-09T06:15:54.744Z,256.00
2022-08-09T06:16:54.484Z,257.00
2022-08-09T06:17:54.622Z,260.00
2022-08-09T06:18:54.472Z,263.00
2022-08-09T06:19:54.459Z,263.00
2022-08-09T06:20:57.735Z,265.00
2022-08-09T06:21:58.907Z,266.00
2022-08-09T06:22:54.418Z,270.00
2022-08-09T06:23:58.952Z,273.00
2022-08-09T06:24:55.380Z,272.00
2022-08-09T06:25:55.287Z,274.00
2022-08-09T06:26:54.371Z,276.00
2022-08-09T06:27:54.350Z,276.00
2022-08-09T06:29:00.260Z,278.00
2022-08-09T06:30:04.663Z,280.00
2022-08-09T06:30:55.662Z,282.00
2022-08-09T06:32:17.216Z,285.00
2022-08-09T06:33:13.204Z,285.00
2022-08-09T06:33:55.267Z,287.00
2022-08-09T06:34:54.296Z,289.00
2022-08-09T06:35:57.296Z,290.00
2022-08-09T06:36:59.000Z,293.00
2022-08-09T06:38:06.713Z,296.00
2022-08-09T06:38:56.889Z,296.00
2022-08-09T06:39:59.828Z,297.00
2022-08-09T06:40:55.271Z,297.00
2022-08-09T06:42:07.647Z,299.00
2022-08-09T06:42:55.166Z,299.00
2022-08-09T06:43:54.143Z,301.00
2022-08-09T06:44:54.708Z,302.00
2022-08-09T06:46:06.205Z,304.00
2022-08-09T06:46:55.698Z,305.00
2022-08-09T06:47:57.919Z,308.00
2022-08-09T06:48:59.691Z,310.00
2022-08-09T06:50:14.293Z,309.00
2022-08-09T06:50:55.283Z,312.00
2022-08-09T06:51:54.028Z,314.00
2022-08-09T06:52:54.013Z,316.00
2022-08-09T06:53:54.001Z,315.00
2022-08-09T06:54:54.150Z,315.00
2022-08-09T06:55:54.274Z,317.00
2022-08-09T06:56:53.961Z,319.00
2022-08-09T06:58:02.447Z,320.00
2022-08-09T07:00:50.386Z,321.00
2022-08-09T07:00:52.251Z,321.00
2022-08-09T07:00:58.731Z,322.00
2022-08-09T07:01:58.110Z,324.00
2022-08-09T07:02:54.931Z,325.00
2022-08-09T07:03:56.635Z,326.00
2022-08-09T07:04:54.861Z,326.00
2022-08-09T07:06:04.700Z,328.00
2022-08-09T07:06:59.883Z,329.00
2022-08-09T07:08:00.742Z,330.00
2022-08-09T07:08:54.829Z,333.00
2022-08-09T07:10:13.130Z,337.00
2022-08-09T07:10:54.806Z,335.00
2022-08-09T07:11:54.007Z,335.00
2022-08-09T07:12:57.383Z,336.00
2022-08-09T07:14:05.029Z,338.00
2022-08-09T07:14:54.718Z,340.00
2022-08-09T07:16:41.317Z,339.00
2022-08-09T07:16:58.244Z,340.00
2022-08-09T07:18:02.031Z,341.00
2022-08-09T07:18:54.672Z,343.00
2022-08-09T07:19:55.446Z,343.00
2022-08-09T07:20:53.642Z,345.00
2022-08-09T07:21:57.929Z,349.00
2022-08-09T07:22:54.878Z,346.00
2022-08-09T07:23:58.080Z,346.00
2022-08-09T07:24:53.602Z,346.00
2022-08-09T07:26:02.509Z,349.00
2022-08-09T07:26:54.561Z,354.00
2022-08-09T07:27:55.484Z,355.00
2022-08-09T07:29:08.488Z,355.00
2022-08-09T07:29:57.014Z,353.00
2022-08-09T07:30:53.742Z,360.00
2022-08-09T07:31:53.499Z,363.00
2022-08-09T07:32:53.487Z,357.00
2022-08-09T07:33:55.895Z,358.00
2022-08-09T07:34:53.459Z,359.00
2022-08-09T07:35:54.718Z,367.00
2022-08-09T07:36:53.668Z,358.00
2022-08-09T07:37:54.015Z,358.00
2022-08-09T07:39:00.541Z,358.00
2022-08-09T07:39:54.515Z,357.00
2022-08-09T07:41:00.947Z,358.00
2022-08-09T07:41:54.366Z,357.00
2022-08-09T07:42:54.257Z,358.00
2022-08-09T07:43:56.421Z,360.00
2022-08-09T07:44:56.238Z,363.00
2022-08-09T07:45:54.580Z,361.00
2022-08-09T07:46:54.313Z,361.00
2022-08-09T07:48:01.730Z,365.00
2022-08-09T07:49:00.179Z,365.00
2022-08-09T07:50:07.986Z,369.00
2022-08-09T07:51:09.370Z,364.00
2022-08-09T07:52:05.750Z,364.00
2022-08-09T07:52:54.237Z,363.00
2022-08-09T07:54:04.448Z,364.00
2022-08-09T07:54:54.212Z,364.00
2022-08-09T07:56:03.175Z,364.00
2022-08-09T07:56:54.429Z,363.00
2022-08-09T07:57:53.176Z,364.00
2022-08-09T07:58:53.166Z,366.00
2022-08-09T08:00:03.586Z,366.00
2022-08-09T08:00:59.195Z,365.00
2022-08-09T08:01:54.414Z,366.00
2022-08-09T08:02:53.109Z,370.00
2022-08-09T08:03:53.097Z,378.00
2022-08-09T08:04:53.572Z,369.00
2022-08-09T08:05:57.605Z,371.00
2022-08-09T08:06:56.087Z,369.00
2022-08-09T08:09:02.016Z,370.00
2022-08-09T08:09:03.529Z,380.00
2022-08-09T08:10:07.676Z,369.00
2022-08-09T08:11:03.088Z,368.00
2022-08-09T08:12:11.615Z,374.00
2022-08-09T08:12:54.049Z,381.00
2022-08-09T08:13:57.158Z,370.00
2022-08-09T08:14:52.956Z,382.00
2022-08-09T08:15:52.943Z,382.00
2022-08-09T08:17:07.658Z,376.00
2022-08-09T08:17:58.618Z,374.00
2022-08-09T08:18:52.903Z,374.00
2022-08-09T08:19:52.883Z,373.00
2022-08-09T08:20:52.875Z,380.00
2022-08-09T08:21:53.232Z,371.00
2022-08-09T08:22:52.848Z,374.00
2022-08-09T08:23:56.013Z,378.00
2022-08-09T08:24:52.823Z,383.00
2022-08-09T08:26:06.281Z,377.00
2022-08-09T08:26:55.487Z,376.00
2022-08-09T08:27:52.789Z,378.00
2022-08-09T08:28:52.772Z,380.00
2022-08-09T08:29:52.788Z,376.00
2022-08-09T08:30:52.751Z,376.00
2022-08-09T08:32:03.866Z,381.00
2022-08-09T08:32:54.242Z,376.00
2022-08-09T08:33:55.869Z,379.00
2022-08-09T08:34:55.365Z,389.00
2022-08-09T08:36:00.155Z,382.00
2022-08-09T08:36:53.901Z,387.00
2022-08-09T08:37:59.654Z,375.00
2022-08-09T08:38:53.798Z,391.00
2022-08-09T08:39:52.740Z,380.00
2022-08-09T08:40:52.614Z,379.00
2022-08-09T08:41:52.842Z,396.00
2022-08-09T08:42:52.625Z,379.00
2022-08-09T08:43:52.565Z,379.00
2022-08-09T08:44:52.553Z,378.00
2022-08-09T08:46:00.133Z,379.00
2022-08-09T08:47:03.133Z,378.00
2022-08-09T08:47:53.534Z,388.00
2022-08-09T08:50:03.657Z,382.00
2022-08-09T08:51:03.624Z,382.00
2022-08-09T08:52:04.249Z,379.00
2022-08-09T08:53:04.846Z,385.00
2022-08-09T08:54:04.935Z,383.00
2022-08-09T08:55:03.943Z,384.00
2022-08-09T08:56:03.569Z,387.00
2022-08-09T08:57:03.559Z,386.00
2022-08-09T08:58:04.780Z,380.00
2022-08-09T08:59:18.747Z,380.00
2022-08-09T09:00:13.168Z,379.00
2022-08-09T09:01:08.995Z,380.00
2022-08-09T09:02:05.555Z,393.00
2022-08-09T09:03:08.283Z,380.00
2022-08-09T09:04:04.455Z,381.00
2022-08-09T09:05:06.060Z,385.00
2022-08-09T09:06:04.494Z,382.00
2022-08-09T09:07:03.424Z,382.00
2022-08-09T09:08:03.635Z,378.00
2022-08-09T09:09:06.886Z,378.00
2022-08-09T09:10:04.969Z,380.00
2022-08-09T09:11:03.385Z,387.00
2022-08-09T09:12:03.728Z,386.00
2022-08-09T09:13:09.283Z,382.00
2022-08-09T09:14:04.334Z,387.00
2022-08-09T09:15:03.322Z,380.00
2022-08-09T09:16:03.307Z,380.00
2022-08-09T09:17:03.292Z,389.00
2022-08-09T09:18:03.274Z,384.00
2022-08-09T09:20:04.252Z,381.00
2022-08-09T09:21:03.242Z,381.00
2022-08-09T09:22:04.271Z,382.00
2022-08-09T09:23:03.216Z,384.00
2022-08-09T09:24:05.438Z,385.00
2022-08-09T09:26:00.840Z,394.00
2022-08-09T09:26:12.197Z,386.00
2022-08-09T09:27:04.226Z,381.00
2022-08-09T09:28:08.124Z,379.00
2022-08-09T09:29:11.108Z,397.00
2022-08-09T09:30:10.608Z,382.00
2022-08-09T09:31:04.105Z,387.00
2022-08-09T09:32:14.935Z,387.00
2022-08-09T09:33:13.808Z,383.00
2022-08-09T09:34:04.299Z,397.00
2022-08-09T09:35:03.065Z,387.00
2022-08-09T09:36:19.713Z,386.00
2022-08-09T09:37:04.036Z,380.00
2022-08-09T09:38:03.015Z,391.00
2022-08-09T09:39:03.119Z,392.00
2022-08-09T09:40:03.317Z,393.00
2022-08-09T09:41:02.987Z,382.00
2022-08-09T09:42:05.566Z,385.00
2022-08-09T09:43:03.953Z,389.00
2022-08-09T09:44:11.470Z,385.00
2022-08-09T09:45:03.947Z,385.00
2022-08-09T09:47:03.904Z,398.00
2022-08-09T09:48:02.976Z,383.00
2022-08-09T09:49:02.883Z,387.00
2022-08-09T09:50:13.718Z,383.00
2022-08-09T09:51:03.853Z,394.00
2022-08-09T09:52:02.834Z,383.00
2022-08-09T09:53:02.831Z,386.00
2022-08-09T09:54:10.587Z,384.00
2022-08-09T09:55:16.049Z,383.00
2022-08-09T09:56:05.130Z,382.00
2022-08-09T09:58:01.261Z,382.00
2022-08-09T09:58:16.155Z,390.00
2022-08-09T09:59:03.771Z,380.00
2022-08-09T10:00:02.739Z,392.00
2022-08-09T10:01:02.972Z,383.00
2022-08-09T10:02:02.721Z,385.00
2022-08-09T10:03:09.393Z,396.00
2022-08-09T10:04:08.872Z,382.00
2022-08-09T10:05:03.677Z,381.00
2022-08-09T10:06:05.077Z,387.00
2022-08-09T10:07:03.690Z,384.00
2022-08-09T10:08:28.030Z,390.00
2022-08-09T10:09:21.638Z,392.00
2022-08-09T10:10:03.738Z,384.00
2022-08-09T10:11:30.828Z,382.00
2022-08-09T10:12:12.021Z,383.00
2022-08-09T10:13:03.593Z,386.00
2022-08-09T10:14:02.576Z,384.00
2022-08-09T10:15:02.555Z,384.00
2022-08-09T10:16:54.522Z,382.00
2022-08-09T10:17:40.721Z,381.00
2022-08-09T10:18:03.512Z,381.00
2022-08-09T10:19:02.513Z,381.00
2022-08-09T10:20:02.492Z,384.00
2022-08-09T10:21:02.491Z,390.00
2022-08-09T10:22:02.711Z,393.00
2022-08-09T10:23:02.463Z,392.00
2022-08-09T10:24:03.939Z,388.00
2022-08-09T10:25:11.303Z,395.00
2022-08-09T10:26:06.881Z,384.00
2022-08-09T10:27:10.057Z,382.00
2022-08-09T10:28:03.386Z,382.00
2022-08-09T10:29:21.302Z,381.00
2022-08-09T10:30:48.092Z,381.00
2022-08-09T10:33:03.936Z,393.00
2022-08-09T10:34:09.063Z,384.00
2022-08-09T10:35:03.309Z,382.00
2022-08-09T10:36:02.623Z,391.00
2022-08-09T10:37:02.282Z,391.00
2022-08-09T10:38:02.271Z,384.00
2022-08-09T10:39:02.252Z,381.00
2022-08-09T10:40:02.318Z,381.00
2022-08-09T10:41:02.560Z,383.00
2022-08-09T10:42:03.682Z,384.00
2022-08-09T10:43:02.200Z,384.00
2022-08-09T10:44:02.494Z,381.00
2022-08-09T10:45:02.185Z,381.00
2022-08-09T10:46:02.407Z,381.00
2022-08-09T10:47:03.792Z,381.00
2022-08-09T10:48:17.296Z,393.00
2022-08-09T10:49:03.131Z,389.00
2022-08-09T10:50:02.115Z,389.00
2022-08-09T10:51:02.105Z,386.00
2022-08-09T10:52:02.326Z,381.00
2022-08-09T10:53:02.075Z,378.00
2022-08-09T10:54:04.803Z,381.00
2022-08-09T10:55:02.057Z,381.00
2022-08-09T10:56:02.272Z,385.00
2022-08-09T10:57:02.024Z,389.00
2022-08-09T10:58:02.023Z,385.00
2022-08-09T10:59:02.001Z,385.00
2022-08-09T11:00:02.118Z,387.00
2022-08-09T11:03:02.590Z,379.00
2022-08-09T11:03:15.528Z,382.00
2022-08-09T11:03:19.117Z,376.00
2022-08-09T11:04:03.896Z,371.00
2022-08-09T11:05:02.019Z,369.00
2022-08-09T11:06:01.959Z,370.00
2022-08-09T11:07:02.138Z,377.00
2022-08-09T11:08:01.886Z,368.00
2022-08-09T11:09:16.014Z,370.00
2022-08-09T11:10:02.859Z,368.00
2022-08-09T11:11:08.727Z,379.00
2022-08-09T11:12:05.179Z,375.00
2022-08-09T11:13:01.828Z,371.00
2022-08-09T11:14:01.807Z,367.00
2022-08-09T11:15:01.820Z,366.00
2022-08-09T11:16:04.645Z,364.00
2022-08-09T11:17:01.773Z,362.00
2022-08-09T11:18:03.545Z,366.00
2022-08-09T11:19:01.767Z,374.00
2022-08-09T11:20:11.837Z,382.00
2022-08-09T11:21:02.976Z,370.00
2022-08-09T11:22:18.596Z,365.00
2022-08-09T11:23:02.911Z,375.00
2022-08-09T11:24:01.677Z,367.00
2022-08-09T11:25:01.664Z,360.00
2022-08-09T11:26:01.748Z,361.00
2022-08-09T11:27:03.623Z,366.00
2022-08-09T11:28:04.519Z,369.00
2022-08-09T11:29:02.623Z,365.00
2022-08-09T11:30:05.625Z,368.00
2022-08-09T11:31:02.829Z,374.00
2022-08-09T11:32:01.574Z,368.00
2022-08-09T11:33:01.563Z,361.00
2022-08-09T11:34:01.557Z,359.00
2022-08-09T11:35:01.541Z,360.00
2022-08-09T11:36:01.762Z,354.00
2022-08-09T11:37:01.517Z,357.00
2022-08-09T11:38:01.559Z,363.00
2022-08-09T11:39:01.509Z,357.00
2022-08-09T11:40:01.599Z,361.00
2022-08-09T11:41:01.699Z,359.00
2022-08-09T11:42:01.458Z,353.00
2022-08-09T11:43:01.438Z,353.00
2022-08-09T11:44:01.420Z,352.00
2022-08-09T11:45:01.415Z,345.00
2022-08-09T11:46:01.649Z,350.00
2022-08-09T11:47:01.391Z,345.00
2022-08-09T11:48:06.599Z,341.00
2022-08-09T11:49:05.174Z,339.00
2022-08-09T11:50:55.475Z,338.00
2022-08-09T11:52:56.355Z,342.00
2022-08-09T11:53:02.656Z,342.00
2022-08-09T11:53:44.083Z,348.00
2022-08-09T11:54:03.558Z,360.00
2022-08-09T11:55:01.284Z,347.00
2022-08-09T11:56:02.445Z,341.00
2022-08-09T11:57:01.497Z,347.00
2022-08-09T11:58:05.898Z,337.00
2022-08-09T11:59:03.271Z,343.00
2022-08-09T12:00:01.221Z,357.00
2022-08-09T12:01:01.221Z,347.00
2022-08-09T12:02:34.712Z,349.00
2022-08-09T12:03:31.812Z,339.00
2022-08-09T12:04:02.217Z,336.00
2022-08-09T12:05:01.193Z,349.00
2022-08-09T12:06:01.139Z,340.00
2022-08-09T12:07:01.365Z,331.00
2022-08-09T12:08:01.114Z,329.00
2022-08-09T12:09:01.378Z,324.00
2022-08-09T12:10:02.181Z,323.00
2022-08-09T12:11:01.827Z,328.00
2022-08-09T12:12:03.394Z,329.00
2022-08-09T12:13:03.704Z,325.00
2022-08-09T12:14:10.712Z,323.00
2022-08-09T12:15:07.882Z,320.00
2022-08-09T12:16:02.258Z,324.00
2022-08-09T12:17:01.017Z,328.00
2022-08-09T12:18:02.015Z,321.00
2022-08-09T12:19:00.975Z,318.00
2022-08-09T12:20:00.967Z,318.00
2022-08-09T12:21:02.826Z,319.00
2022-08-09T12:22:01.168Z,318.00
2022-08-09T12:23:01.178Z,315.00
2022-08-09T12:24:08.922Z,315.00
2022-08-09T12:25:01.895Z,314.00
2022-08-09T12:26:00.877Z,313.00
2022-08-09T12:29:12.889Z,312.00
2022-08-09T12:29:13.734Z,313.00
2022-08-09T12:29:14.709Z,312.00
2022-08-09T12:30:35.468Z,313.00
2022-08-09T12:31:02.193Z,316.00
2022-08-09T12:32:02.053Z,315.00
2022-08-09T12:33:00.795Z,311.00
2022-08-09T12:34:01.551Z,310.00
2022-08-09T12:35:03.153Z,311.00
2022-08-09T12:36:00.751Z,310.00
2022-08-09T12:37:09.785Z,311.00
2022-08-09T12:38:01.735Z,316.00
2022-08-09T12:39:00.736Z,312.00
2022-08-09T12:40:01.085Z,307.00
2022-08-09T12:41:00.692Z,307.00
2022-08-09T12:42:00.920Z,307.00
2022-08-09T12:43:00.662Z,307.00
2022-08-09T12:44:05.230Z,306.00
2022-08-09T12:45:01.639Z,305.00
2022-08-09T12:46:00.821Z,305.00
2022-08-09T12:47:00.616Z,307.00
2022-08-09T12:48:00.837Z,312.00
2022-08-09T12:49:00.589Z,303.00
2022-08-09T12:50:00.608Z,304.00